CheckWX is a tool to help pilots better visualize weather data.  It is not intended as a substitute for an official pre-flight weather briefing.

10:47:55 UTC

KDEC TAF
Decatur Airport
Decatur, Illinois, USA
KDEC 230521Z 2306/2406 17010G18KT P6SM -FZRA SCT025 OVC035 FM230900 17010KT 4SM -SN OVC015 FM231300 17008KT 5SM -SN OVC008 FM231800 16009KT 5SM -SNRA OVC005 FM240000 13007KT 2SM -SN OVC005

Jan-23@
06:00 UTC

Jan-23 @ 06:00 UTC

Jan-23@
09:00 UTC

Jan-23 @ 09:00 UTC

KDEC 230521Z 2306/2406 17010G18KT P6SM -FZRA SCT025 OVC035

Expired

Wind
  • 170° at 10 KTS
  • {Gusting to 18 KTS
Conditions
Light Freezing Light Rain
Cloud Levels
  • Scattered at 2,500' AGL
  • Overcast at 3,500' AGL

Jan-23@
09:00 UTC

Jan-23 @ 09:00 UTC

Jan-23@
13:00 UTC

Jan-23 @ 13:00 UTC

FM230900 17010KT 4SM -SN OVC015

From

From Standard forecast or significant change

Wind
  • 170° at 10 KTS
Conditions
Light Snow
Cloud Levels
  • Overcast at 1,500' AGL

Jan-23@
13:00 UTC

Jan-23 @ 13:00 UTC

Jan-23@
18:00 UTC

Jan-23 @ 18:00 UTC

FM231300 17008KT 5SM -SN OVC008

From

From Standard forecast or significant change

Wind
  • 170° at 8 KTS
Conditions
Light Snow
Cloud Levels
  • Overcast at 800' AGL

Jan-23@
18:00 UTC

Jan-23 @ 18:00 UTC

Jan-24@
00:00 UTC

Jan-24 @ 00:00 UTC

FM231800 16009KT 5SM -SNRA OVC005

From

From Standard forecast or significant change

Wind
  • 160° at 9 KTS
Conditions
Light Snow, Light Rain
Cloud Levels
  • Overcast at 500' AGL

Jan-24@
00:00 UTC

Jan-24 @ 00:00 UTC

Jan-24@
06:00 UTC

Jan-24 @ 06:00 UTC

FM240000 13007KT 2SM -SN OVC005

From

From Standard forecast or significant change

Wind
  • 130° at 7 KTS
Conditions
Light Snow
Cloud Levels
  • Overcast at 500' AGL